Time;durP1;ratioP1;P1;durP2;ratioP2;P2;SDS_P1;SDS_P2;PMS_P1;PMS_P2;Temp;Humidity;BMP_temperature;BMP_pressure;BME280_temperature;BME280_humidity;BME280_pressure;Samples;Min_cycle;Max_cycle;Signal;HPM_P1;HPM_P2
2021/09/21 00:01:43;;;;;;;4.25;2.20;;;;;;;;;;4955883;28;20058;-77
2021/09/21 00:04:09;;;;;;;7.05;2.50;;;;;;;;;;4955821;28;20039;-77
2021/09/21 00:06:35;;;;;;;4.38;2.15;;;;;;;;;;4955681;28;20154;-77
2021/09/21 00:09:01;;;;;;;7.63;2.60;;;;;;;;;;4955508;28;20039;-77
2021/09/21 00:11:26;;;;;;;8.30;2.55;;;;;;;;;;4955616;28;20070;-77
2021/09/21 00:13:51;;;;;;;13.48;3.17;;;;;;;;;;4955865;28;20417;-77
2021/09/21 00:16:17;;;;;;;3.42;2.30;;;;;;;;;;4955787;29;20039;-77
2021/09/21 00:18:42;;;;;;;7.53;2.28;;;;;;;;;;4955968;28;20043;-77
2021/09/21 00:21:08;;;;;;;7.60;2.60;;;;;;;;;;4955616;28;20043;-77
2021/09/21 00:23:33;;;;;;;10.43;2.50;;;;;;;;;;4955812;28;20063;-77
2021/09/21 00:25:59;;;;;;;4.95;2.45;;;;;;;;;;4955549;28;20039;-76
2021/09/21 00:28:24;;;;;;;4.93;2.58;;;;;;;;;;4955312;28;20073;-77
2021/09/21 00:30:52;;;;;;;14.43;2.40;;;;;;;;;;4954366;28;20031;-77
2021/09/21 00:33:21;;;;;;;7.32;2.35;;;;;;;;;;4955420;28;20409;-77
2021/09/21 00:35:48;;;;;;;3.00;2.60;;;;;;;;;;4955304;28;20635;-77
2021/09/21 00:38:18;;;;;;;4.70;2.70;;;;;;;;;;4955728;28;20039;-77
2021/09/21 00:40:46;;;;;;;13.68;2.50;;;;;;;;;;4954345;28;20061;-77
2021/09/21 00:43:11;;;;;;;8.07;2.65;;;;;;;;;;4954403;28;20063;-77
2021/09/21 00:45:38;;;;;;;3.75;2.72;;;;;;;;;;4953905;29;20493;-77
2021/09/21 00:48:04;;;;;;;12.00;2.60;;;;;;;;;;4955298;28;20071;-77
2021/09/21 00:50:31;;;;;;;4.72;2.72;;;;;;;;;;4955166;28;20039;-77
2021/09/21 00:52:59;;;;;;;4.78;2.42;;;;;;;;;;4955223;28;20497;-77
2021/09/21 00:55:25;;;;;;;3.63;2.47;;;;;;;;;;4954917;28;20027;-76
2021/09/21 00:57:50;;;;;;;5.88;2.17;;;;;;;;;;4953855;29;20381;-77
2021/09/21 01:00:18;;;;;;;3.55;2.67;;;;;;;;;;4954583;28;20469;-77
2021/09/21 01:02:44;;;;;;;3.42;2.70;;;;;;;;;;4954998;28;20043;-77
2021/09/21 01:05:10;;;;;;;4.43;2.25;;;;;;;;;;4954164;29;20405;-77
2021/09/21 01:07:37;;;;;;;7.22;2.40;;;;;;;;;;4955289;28;20039;-77
2021/09/21 01:10:08;;;;;;;5.80;2.83;;;;;;;;;;4952961;28;20043;-77
2021/09/21 01:12:34;;;;;;;13.65;3.17;;;;;;;;;;4953187;29;20075;-77
2021/09/21 01:15:00;;;;;;;5.13;2.50;;;;;;;;;;4953474;29;20075;-77
2021/09/21 01:17:26;;;;;;;7.70;2.30;;;;;;;;;;4954736;28;20664;-77
2021/09/21 01:19:52;;;;;;;5.80;2.53;;;;;;;;;;4954414;28;20043;-77
2021/09/21 01:22:17;;;;;;;12.10;2.70;;;;;;;;;;4953709;28;20154;-77
2021/09/21 01:24:43;;;;;;;7.57;2.78;;;;;;;;;;4954815;28;20031;-77
2021/09/21 01:27:08;;;;;;;4.05;2.60;;;;;;;;;;4955090;29;20035;-77
2021/09/21 01:29:34;;;;;;;8.70;2.70;;;;;;;;;;4954432;28;20027;-77
2021/09/21 01:32:00;;;;;;;8.80;2.30;;;;;;;;;;4954896;28;20042;-78
2021/09/21 01:34:26;;;;;;;3.15;2.17;;;;;;;;;;4954789;28;20400;-77
2021/09/21 01:36:51;;;;;;;6.53;3.47;;;;;;;;;;4954710;28;20071;-77
2021/09/21 01:39:17;;;;;;;8.45;2.22;;;;;;;;;;4953986;28;20057;-77
2021/09/21 01:41:43;;;;;;;4.75;2.63;;;;;;;;;;4953376;29;20035;-77
2021/09/21 01:44:09;;;;;;;7.43;3.03;;;;;;;;;;4954694;28;20045;-77
2021/09/21 01:46:34;;;;;;;7.38;3.10;;;;;;;;;;4953934;28;20035;-77
2021/09/21 01:49:00;;;;;;;14.63;3.33;;;;;;;;;;4954732;28;20039;-77
2021/09/21 01:51:34;;;;;;;3.80;2.88;;;;;;;;;;4954481;28;20045;-77
2021/09/21 01:54:20;;;;;;;7.57;2.80;;;;;;;;;;4953174;29;20074;-77
2021/09/21 01:59:31;;;;;;;8.20;3.40;;;;;;;;;;4954617;28;20046;-76
2021/09/21 02:01:57;;;;;;;4.65;2.72;;;;;;;;;;4953039;28;20039;-77
2021/09/21 02:04:22;;;;;;;9.35;2.80;;;;;;;;;;4957992;28;20050;-79
2021/09/21 02:06:48;;;;;;;4.03;2.40;;;;;;;;;;4958326;28;20114;-77
2021/09/21 02:09:14;;;;;;;9.13;2.47;;;;;;;;;;4957890;28;20066;-77
2021/09/21 02:11:42;;;;;;;7.05;2.72;;;;;;;;;;4955805;28;20375;-77
2021/09/21 02:14:10;;;;;;;9.00;3.10;;;;;;;;;;4957958;28;20039;-76
2021/09/21 02:16:36;;;;;;;7.25;2.67;;;;;;;;;;4958710;28;20086;-77
2021/09/21 02:19:02;;;;;;;6.32;3.05;;;;;;;;;;4957850;28;20082;-77
2021/09/21 02:21:27;;;;;;;8.98;2.95;;;;;;;;;;4957764;28;20517;-77
2021/09/21 02:23:55;;;;;;;4.10;2.80;;;;;;;;;;4956684;28;20548;-76
2021/09/21 02:26:21;;;;;;;3.95;2.63;;;;;;;;;;4956716;29;20038;-77
2021/09/21 02:28:46;;;;;;;4.30;2.75;;;;;;;;;;4957742;28;20031;-76
2021/09/21 02:31:12;;;;;;;6.28;3.10;;;;;;;;;;4958136;28;20385;-77
2021/09/21 02:33:38;;;;;;;3.92;2.22;;;;;;;;;;4958815;28;20430;-77
2021/09/21 02:36:05;;;;;;;4.07;2.42;;;;;;;;;;4956174;29;20118;-77
2021/09/21 02:38:35;;;;;;;4.57;2.72;;;;;;;;;;4956923;28;20107;-77
2021/09/21 02:41:00;;;;;;;4.03;2.90;;;;;;;;;;4956336;28;20393;-77
2021/09/21 02:43:26;;;;;;;2.85;2.38;;;;;;;;;;4955988;28;20043;-77
2021/09/21 02:45:51;;;;;;;4.88;2.50;;;;;;;;;;4957464;28;20046;-77
2021/09/21 02:48:17;;;;;;;4.63;2.63;;;;;;;;;;4957280;29;20032;-77
2021/09/21 02:50:43;;;;;;;6.75;2.72;;;;;;;;;;4958020;28;20118;-77
2021/09/21 02:53:09;;;;;;;6.32;3.38;;;;;;;;;;4957581;28;20121;-77
2021/09/21 02:55:34;;;;;;;3.38;2.83;;;;;;;;;;4957267;28;20070;-76
2021/09/21 02:57:59;;;;;;;7.22;3.22;;;;;;;;;;4957473;28;20118;-76
2021/09/21 03:00:26;;;;;;;15.98;6.35;;;;;;;;;;4956326;28;20129;-77
2021/09/21 03:02:54;;;;;;;9.05;4.95;;;;;;;;;;4957407;28;20043;-77
2021/09/21 03:05:24;;;;;;;7.68;3.28;;;;;;;;;;4957291;28;20497;-76
2021/09/21 03:07:58;;;;;;;5.03;2.55;;;;;;;;;;4957291;28;20049;-76
2021/09/21 03:10:37;;;;;;;7.32;2.80;;;;;;;;;;4955731;28;20035;-76
2021/09/21 03:18:42;;;;;;;4.53;2.65;;;;;;;;;;4954953;29;20047;-76
2021/09/21 03:21:08;;;;;;;3.30;2.72;;;;;;;;;;4956410;28;20039;-76
2021/09/21 03:23:33;;;;;;;8.70;3.15;;;;;;;;;;4956995;28;20118;-76
2021/09/21 03:25:58;;;;;;;4.85;2.47;;;;;;;;;;4957050;28;20374;-76
2021/09/21 03:28:24;;;;;;;3.22;2.58;;;;;;;;;;4956714;28;20405;-76
2021/09/21 03:30:50;;;;;;;4.32;2.33;;;;;;;;;;4955755;28;20043;-76
2021/09/21 03:33:15;;;;;;;2.92;2.30;;;;;;;;;;4956648;28;20566;-76
2021/09/21 03:35:41;;;;;;;5.95;2.80;;;;;;;;;;4956832;28;20035;-76
2021/09/21 03:38:06;;;;;;;3.22;2.30;;;;;;;;;;4956508;29;20466;-76
2021/09/21 03:40:32;;;;;;;5.13;2.38;;;;;;;;;;4954594;28;20063;-76
2021/09/21 03:42:58;;;;;;;3.35;2.60;;;;;;;;;;4955707;29;20540;-76
2021/09/21 03:45:24;;;;;;;5.28;2.50;;;;;;;;;;4956721;28;20525;-76
2021/09/21 03:47:50;;;;;;;4.28;2.70;;;;;;;;;;4956548;28;20129;-76
2021/09/21 03:50:16;;;;;;;10.00;3.15;;;;;;;;;;4955525;28;20035;-76
2021/09/21 03:52:42;;;;;;;7.72;3.00;;;;;;;;;;4955799;28;20043;-76
2021/09/21 03:55:08;;;;;;;7.25;3.05;;;;;;;;;;4956263;28;20035;-76
2021/09/21 03:57:33;;;;;;;5.38;2.80;;;;;;;;;;4956547;28;20078;-76
2021/09/21 03:59:59;;;;;;;7.68;3.35;;;;;;;;;;4956560;28;20110;-76
2021/09/21 04:02:24;;;;;;;6.40;3.25;;;;;;;;;;4956455;28;20078;-76
2021/09/21 04:04:49;;;;;;;7.82;2.97;;;;;;;;;;4955168;28;20035;-76
2021/09/21 04:07:15;;;;;;;6.10;2.95;;;;;;;;;;4956337;29;20086;-77
2021/09/21 04:09:40;;;;;;;4.70;2.80;;;;;;;;;;4955765;28;20037;-76
2021/09/21 04:12:06;;;;;;;6.65;2.95;;;;;;;;;;4956663;29;20039;-77
2021/09/21 04:14:32;;;;;;;5.35;2.70;;;;;;;;;;4956154;28;20035;-77
2021/09/21 04:16:58;;;;;;;7.00;2.95;;;;;;;;;;4955858;28;20031;-77
2021/09/21 04:19:24;;;;;;;3.50;2.70;;;;;;;;;;4956025;28;20030;-77
2021/09/21 04:21:49;;;;;;;4.95;2.95;;;;;;;;;;4954955;29;20039;-76
2021/09/21 04:24:15;;;;;;;5.05;2.67;;;;;;;;;;4955948;28;20035;-77
2021/09/21 04:26:40;;;;;;;6.85;2.70;;;;;;;;;;4955727;28;20039;-76
2021/09/21 04:29:06;;;;;;;7.30;2.83;;;;;;;;;;4955969;28;20051;-76
2021/09/21 04:31:33;;;;;;;5.32;2.92;;;;;;;;;;4956191;28;20043;-76
2021/09/21 04:33:58;;;;;;;5.50;3.33;;;;;;;;;;4954857;29;20047;-76
2021/09/21 04:36:25;;;;;;;6.22;3.28;;;;;;;;;;4955193;28;20366;-76
2021/09/21 04:38:52;;;;;;;11.10;3.88;;;;;;;;;;4954433;28;20085;-76
2021/09/21 04:41:17;;;;;;;11.10;3.42;;;;;;;;;;4955759;28;20504;-76
2021/09/21 04:43:43;;;;;;;8.30;3.95;;;;;;;;;;4956213;28;20035;-76
2021/09/21 04:46:10;;;;;;;12.88;3.75;;;;;;;;;;4955838;28;20121;-76
2021/09/21 04:48:36;;;;;;;9.40;3.90;;;;;;;;;;4955843;28;20118;-77
2021/09/21 04:51:02;;;;;;;9.13;4.07;;;;;;;;;;4955800;28;20129;-76
2021/09/21 04:53:28;;;;;;;8.52;4.03;;;;;;;;;;4956065;28;20054;-77
2021/09/21 04:55:54;;;;;;;13.20;4.25;;;;;;;;;;4955893;28;20477;-77
2021/09/21 04:58:19;;;;;;;7.50;3.95;;;;;;;;;;4954270;28;20043;-76
2021/09/21 05:00:44;;;;;;;9.13;6.05;;;;;;;;;;4954680;28;20035;-76
2021/09/21 05:03:10;;;;;;;20.48;10.95;;;;;;;;;;4954883;29;20046;-76
2021/09/21 05:05:35;;;;;;;16.50;9.15;;;;;;;;;;4955195;28;20039;-76
2021/09/21 05:08:01;;;;;;;11.43;6.80;;;;;;;;;;4955184;29;20066;-76
2021/09/21 05:10:31;;;;;;;10.43;5.75;;;;;;;;;;4955451;28;20449;-76
2021/09/21 05:12:57;;;;;;;6.05;4.18;;;;;;;;;;4955967;28;20038;-76
2021/09/21 05:15:22;;;;;;;12.50;3.55;;;;;;;;;;4955454;29;20027;-75
2021/09/21 05:17:48;;;;;;;5.18;3.35;;;;;;;;;;4954279;29;20511;-75
2021/09/21 05:20:14;;;;;;;7.28;3.60;;;;;;;;;;4955350;28;20101;-75
2021/09/21 05:22:39;;;;;;;7.10;3.88;;;;;;;;;;4955382;28;20043;-77
2021/09/21 05:25:06;;;;;;;7.25;4.32;;;;;;;;;;4955211;28;20039;-75
2021/09/21 05:27:31;;;;;;;4.15;3.40;;;;;;;;;;4955851;28;20118;-76
2021/09/21 05:29:57;;;;;;;6.78;3.20;;;;;;;;;;4953850;28;20074;-75
2021/09/21 05:32:22;;;;;;;7.25;3.40;;;;;;;;;;4955586;28;20481;-76
2021/09/21 05:34:48;;;;;;;5.10;3.22;;;;;;;;;;4955537;28;20035;-78
2021/09/21 05:37:13;;;;;;;5.35;3.58;;;;;;;;;;4954716;28;20052;-76
2021/09/21 05:39:38;;;;;;;10.40;3.38;;;;;;;;;;4958433;28;20043;-76
2021/09/21 05:42:04;;;;;;;9.48;3.40;;;;;;;;;;4958665;28;20035;-76
2021/09/21 05:44:30;;;;;;;7.97;3.42;;;;;;;;;;4959030;28;20506;-76
2021/09/21 05:46:55;;;;;;;5.10;2.97;;;;;;;;;;4958710;28;20398;-76
2021/09/21 05:49:21;;;;;;;9.48;3.40;;;;;;;;;;4956102;28;20379;-75
2021/09/21 05:51:46;;;;;;;4.22;3.03;;;;;;;;;;4956456;28;20817;-75
2021/09/21 05:54:15;;;;;;;6.65;3.20;;;;;;;;;;4958289;29;20042;-75
2021/09/21 05:56:41;;;;;;;7.35;3.78;;;;;;;;;;4958650;28;20062;-76
2021/09/21 05:59:07;;;;;;;5.72;3.28;;;;;;;;;;4958335;28;20489;-76
2021/09/21 06:01:34;;;;;;;9.55;3.22;;;;;;;;;;4957346;28;20050;-75
2021/09/21 06:04:00;;;;;;;4.80;3.03;;;;;;;;;;4958360;28;20084;-76
2021/09/21 06:06:25;;;;;;;8.07;3.50;;;;;;;;;;4958395;29;20151;-76
2021/09/21 06:08:51;;;;;;;4.88;3.17;;;;;;;;;;4958140;28;20045;-75
2021/09/21 06:11:20;;;;;;;6.68;2.70;;;;;;;;;;4957671;28;20461;-76
2021/09/21 06:13:46;;;;;;;4.88;3.08;;;;;;;;;;4958441;28;20038;-76
2021/09/21 06:16:13;;;;;;;8.93;3.17;;;;;;;;;;4957452;29;20098;-76
2021/09/21 06:18:38;;;;;;;4.10;3.00;;;;;;;;;;4958583;28;20054;-76
2021/09/21 06:21:04;;;;;;;13.73;3.55;;;;;;;;;;4958158;28;20485;-76
2021/09/21 06:23:29;;;;;;;9.50;3.55;;;;;;;;;;4958275;29;20039;-76
2021/09/21 06:25:55;;;;;;;5.97;3.20;;;;;;;;;;4957989;28;20118;-76
2021/09/21 06:28:20;;;;;;;4.75;2.80;;;;;;;;;;4958271;28;20071;-76
2021/09/21 06:30:46;;;;;;;6.78;3.20;;;;;;;;;;4957637;28;20043;-75
2021/09/21 06:33:11;;;;;;;4.82;3.20;;;;;;;;;;4958012;28;20071;-76
2021/09/21 06:35:37;;;;;;;5.93;3.47;;;;;;;;;;4958054;29;20038;-76
2021/09/21 06:38:03;;;;;;;7.30;4.90;;;;;;;;;;4957303;28;20057;-75
2021/09/21 06:40:28;;;;;;;7.78;4.15;;;;;;;;;;4957599;28;20043;-75
2021/09/21 06:42:53;;;;;;;12.25;4.40;;;;;;;;;;4957703;28;20039;-76
2021/09/21 06:45:20;;;;;;;10.52;3.55;;;;;;;;;;4955180;29;20067;-75
2021/09/21 06:47:45;;;;;;;6.72;3.00;;;;;;;;;;4958110;28;20048;-76
2021/09/21 06:50:12;;;;;;;9.13;2.63;;;;;;;;;;4957776;28;20715;-77
2021/09/21 06:52:38;;;;;;;6.97;3.22;;;;;;;;;;4955831;29;20082;-75
2021/09/21 06:55:06;;;;;;;8.18;3.47;;;;;;;;;;4957085;28;20078;-75
2021/09/21 06:57:31;;;;;;;8.90;2.95;;;;;;;;;;4955767;28;20063;-76
2021/09/21 06:59:57;;;;;;;9.57;3.78;;;;;;;;;;4956467;28;20078;-76
2021/09/21 07:02:24;;;;;;;5.97;2.90;;;;;;;;;;4956943;29;20066;-76
2021/09/21 07:04:49;;;;;;;8.50;3.45;;;;;;;;;;4956744;28;20035;-76
2021/09/21 07:07:15;;;;;;;8.02;3.40;;;;;;;;;;4956642;28;20031;-76
2021/09/21 07:09:40;;;;;;;5.85;3.45;;;;;;;;;;4956991;28;20058;-76
2021/09/21 07:12:06;;;;;;;5.68;3.35;;;;;;;;;;4957482;28;20043;-76
2021/09/21 07:14:31;;;;;;;7.32;2.97;;;;;;;;;;4957558;28;20440;-76
2021/09/21 07:16:56;;;;;;;8.25;3.08;;;;;;;;;;4956951;29;20035;-76
2021/09/21 07:19:22;;;;;;;12.18;4.25;;;;;;;;;;4957086;28;20089;-76
2021/09/21 07:21:47;;;;;;;7.93;3.65;;;;;;;;;;4956955;29;20035;-76
2021/09/21 07:24:17;;;;;;;8.85;3.70;;;;;;;;;;4957146;28;20091;-78
2021/09/21 07:26:43;;;;;;;4.15;3.30;;;;;;;;;;4956428;28;20054;-76
2021/09/21 07:29:09;;;;;;;6.15;4.45;;;;;;;;;;4955156;29;20507;-77
2021/09/21 07:31:35;;;;;;;8.77;4.20;;;;;;;;;;4956626;28;20130;-76
2021/09/21 07:34:01;;;;;;;7.10;3.53;;;;;;;;;;4956932;28;20157;-77
2021/09/21 07:36:26;;;;;;;6.57;3.70;;;;;;;;;;4954561;29;20062;-76
2021/09/21 07:38:52;;;;;;;5.43;3.88;;;;;;;;;;4955396;28;20086;-76
2021/09/21 07:41:17;;;;;;;10.73;4.35;;;;;;;;;;4954004;28;20549;-76
2021/09/21 07:43:44;;;;;;;6.10;3.83;;;;;;;;;;4956689;29;20049;-76
2021/09/21 07:46:10;;;;;;;6.80;3.80;;;;;;;;;;4955045;28;20547;-76
2021/09/21 07:48:36;;;;;;;14.77;3.72;;;;;;;;;;4955341;28;20082;-77
2021/09/21 07:51:01;;;;;;;7.32;4.18;;;;;;;;;;4954727;28;20043;-76
2021/09/21 07:53:27;;;;;;;7.38;4.00;;;;;;;;;;4954820;29;20039;-76
2021/09/21 07:55:52;;;;;;;8.82;4.15;;;;;;;;;;4956270;29;20504;-76
2021/09/21 07:58:18;;;;;;;6.47;3.90;;;;;;;;;;4956329;28;20050;-77
2021/09/21 08:00:43;;;;;;;11.77;4.72;;;;;;;;;;4954423;28;20397;-77
2021/09/21 08:03:09;;;;;;;39.10;22.35;;;;;;;;;;4955894;28;20031;-76
2021/09/21 08:05:35;;;;;;;13.57;7.07;;;;;;;;;;4954711;29;20413;-76
2021/09/21 08:08:01;;;;;;;9.13;5.50;;;;;;;;;;4955818;28;20035;-76
2021/09/21 08:10:27;;;;;;;8.73;4.03;;;;;;;;;;4955716;28;20489;-75
2021/09/21 08:12:53;;;;;;;9.70;4.53;;;;;;;;;;4955596;28;20130;-75
2021/09/21 08:15:19;;;;;;;8.23;4.43;;;;;;;;;;4955318;29;20118;-75
2021/09/21 08:17:46;;;;;;;7.07;4.35;;;;;;;;;;4956158;28;20404;-75
2021/09/21 08:20:12;;;;;;;10.55;5.50;;;;;;;;;;4955144;28;20492;-75
2021/09/21 08:22:38;;;;;;;5.88;3.97;;;;;;;;;;4955789;28;20066;-75
2021/09/21 08:25:06;;;;;;;9.27;3.95;;;;;;;;;;4954118;28;20070;-75
2021/09/21 08:27:31;;;;;;;7.15;4.43;;;;;;;;;;4954777;29;20042;-77
2021/09/21 08:29:57;;;;;;;6.32;3.90;;;;;;;;;;4954801;28;20047;-76
2021/09/21 08:32:22;;;;;;;5.60;3.83;;;;;;;;;;4957082;28;20051;-78
2021/09/21 08:34:47;;;;;;;7.88;4.30;;;;;;;;;;4958147;29;20385;-77
2021/09/21 08:37:13;;;;;;;7.78;3.90;;;;;;;;;;4959067;28;20039;-77
2021/09/21 08:39:38;;;;;;;5.78;3.90;;;;;;;;;;4956306;28;20091;-78
2021/09/21 08:42:04;;;;;;;7.22;4.13;;;;;;;;;;4955097;29;20081;-78
2021/09/21 08:44:29;;;;;;;7.32;4.40;;;;;;;;;;4955375;29;20031;-76
2021/09/21 08:46:56;;;;;;;14.20;6.22;;;;;;;;;;4955736;28;20030;-77
2021/09/21 08:49:21;;;;;;;9.45;4.13;;;;;;;;;;4959372;28;20039;-80
2021/09/21 08:51:47;;;;;;;10.95;5.00;;;;;;;;;;4961488;28;20042;-79
2021/09/21 08:54:13;;;;;;;5.45;4.18;;;;;;;;;;4961650;28;20039;-80
2021/09/21 08:56:40;;;;;;;7.90;4.75;;;;;;;;;;4963275;28;20055;-82
2021/09/21 08:59:10;;;;;;;9.27;3.97;;;;;;;;;;4961986;28;20027;-79
2021/09/21 09:01:49;;;;;;;5.95;4.10;;;;;;;;;;4961899;28;20082;-78
2021/09/21 09:04:17;;;;;;;10.73;4.07;;;;;;;;;;4955002;29;20094;-77
2021/09/21 09:06:46;;;;;;;6.03;3.85;;;;;;;;;;4956710;28;20379;-77
2021/09/21 09:09:14;;;;;;;11.95;3.80;;;;;;;;;;4978651;28;20043;-78
2021/09/21 09:11:40;;;;;;;7.80;3.85;;;;;;;;;;4979733;28;20047;-78
2021/09/21 09:14:06;;;;;;;6.10;4.22;;;;;;;;;;4983167;28;20041;-78
2021/09/21 09:16:36;;;;;;;9.38;3.92;;;;;;;;;;4985435;28;20054;-78
2021/09/21 09:19:09;;;;;;;7.88;4.05;;;;;;;;;;4984694;28;20042;-78
2021/09/21 09:21:37;;;;;;;6.47;3.13;;;;;;;;;;4983872;28;20114;-78
2021/09/21 09:24:05;;;;;;;9.05;3.50;;;;;;;;;;4985420;28;20097;-78
2021/09/21 09:26:34;;;;;;;8.27;2.67;;;;;;;;;;4987092;28;20102;-78
2021/09/21 09:29:01;;;;;;;8.93;3.53;;;;;;;;;;4990899;28;20086;-78
2021/09/21 09:31:32;;;;;;;4.80;2.35;;;;;;;;;;4988367;28;20041;-78
2021/09/21 09:34:08;;;;;;;3.08;2.22;;;;;;;;;;4987182;28;20077;-78
2021/09/21 09:36:52;;;;;;;7.72;2.45;;;;;;;;;;4985908;28;20042;-78
2021/09/21 09:39:21;;;;;;;6.30;2.80;;;;;;;;;;4949680;28;20043;-78
2021/09/21 09:41:49;;;;;;;3.25;2.30;;;;;;;;;;4946902;29;20565;-78
2021/09/21 09:44:17;;;;;;;7.47;2.22;;;;;;;;;;4945605;29;20044;-78
2021/09/21 09:46:49;;;;;;;4.13;2.30;;;;;;;;;;4946645;29;20036;-78
2021/09/21 09:49:23;;;;;;;2.65;1.90;;;;;;;;;;4945724;29;20048;-78
2021/09/21 09:51:50;;;;;;;6.60;2.17;;;;;;;;;;4945391;29;20067;-78
2021/09/21 09:54:17;;;;;;;2.42;1.75;;;;;;;;;;4945163;29;20043;-78
2021/09/21 09:56:44;;;;;;;3.58;2.08;;;;;;;;;;4945193;29;20122;-78
2021/09/21 09:59:11;;;;;;;4.32;2.10;;;;;;;;;;4945249;29;20039;-78
2021/09/21 10:01:37;;;;;;;4.50;2.20;;;;;;;;;;4945442;29;20044;-78
2021/09/21 10:04:03;;;;;;;5.30;2.63;;;;;;;;;;4944860;29;20394;-78
2021/09/21 10:06:30;;;;;;;4.40;1.77;;;;;;;;;;4945557;29;20050;-78
2021/09/21 10:08:57;;;;;;;4.30;2.17;;;;;;;;;;4956168;28;20027;-78
2021/09/21 10:11:25;;;;;;;2.75;1.90;;;;;;;;;;4964366;28;20111;-78
2021/09/21 10:13:51;;;;;;;4.35;2.25;;;;;;;;;;4963378;28;20446;-78
2021/09/21 10:16:16;;;;;;;3.15;1.83;;;;;;;;;;4961127;29;20039;-78
2021/09/21 10:18:44;;;;;;;3.17;1.88;;;;;;;;;;4963885;28;20373;-78
2021/09/21 10:21:10;;;;;;;12.55;2.85;;;;;;;;;;4967762;28;20035;-78
2021/09/21 10:23:39;;;;;;;8.10;2.92;;;;;;;;;;4971033;28;20103;-78
2021/09/21 10:26:19;;;;;;;9.45;2.40;;;;;;;;;;4969263;29;20066;-78
2021/09/21 10:28:46;;;;;;;3.15;1.98;;;;;;;;;;4969344;28;20043;-78
2021/09/21 10:31:17;;;;;;;3.97;2.22;;;;;;;;;;4969774;28;20043;-78
2021/09/21 10:33:43;;;;;;;3.38;2.58;;;;;;;;;;4968090;28;20162;-78
2021/09/21 10:36:44;;;;;;;5.38;2.35;;;;;;;;;;4969797;28;20529;-78
2021/09/21 10:39:11;;;;;;;4.32;2.47;;;;;;;;;;4961771;28;20036;-78
2021/09/21 10:41:53;;;;;;;3.25;2.00;;;;;;;;;;4948553;29;20038;-78
2021/09/21 10:44:20;;;;;;;6.13;3.00;;;;;;;;;;4930354;29;20039;-78
2021/09/21 10:46:47;;;;;;;6.97;3.45;;;;;;;;;;4945591;29;20020;-78
2021/09/21 10:49:38;;;;;;;2.20;1.70;;;;;;;;;;4946134;29;20081;-79
2021/09/21 10:52:09;;;;;;;6.65;1.75;;;;;;;;;;4935260;29;20079;-78
2021/09/21 10:54:38;;;;;;;2.85;1.60;;;;;;;;;;4959274;29;20133;-78
2021/09/21 10:57:06;;;;;;;3.47;2.20;;;;;;;;;;4945410;29;20046;-78
2021/09/21 10:59:32;;;;;;;1.77;1.58;;;;;;;;;;4945718;29;20500;-78
2021/09/21 11:01:57;;;;;;;1.52;1.35;;;;;;;;;;4944673;29;20087;-78
2021/09/21 11:04:23;;;;;;;1.95;1.35;;;;;;;;;;4943912;29;20071;-78
2021/09/21 11:06:49;;;;;;;3.08;1.70;;;;;;;;;;4943675;29;20051;-78
2021/09/21 11:09:24;;;;;;;2.42;1.27;;;;;;;;;;4950503;28;20035;-77
2021/09/21 11:11:50;;;;;;;;;;;;;;;;;;4962111;28;20367;-78
2021/09/21 11:14:19;;;;;;;3.92;1.55;;;;;;;;;;4962010;29;19978;-78
2021/09/21 11:16:50;;;;;;;4.50;1.50;;;;;;;;;;4957727;28;20130;-77
2021/09/21 11:19:18;;;;;;;2.42;1.70;;;;;;;;;;4956508;28;20043;-77
2021/09/21 11:21:44;;;;;;;3.28;1.58;;;;;;;;;;4956853;28;20066;-77
2021/09/21 11:24:09;;;;;;;3.00;1.98;;;;;;;;;;4960728;29;20039;-77
2021/09/21 11:26:35;;;;;;;2.40;1.58;;;;;;;;;;4960200;28;20070;-78
2021/09/21 11:29:01;;;;;;;3.80;1.55;;;;;;;;;;4962837;28;20050;-78
2021/09/21 11:31:26;;;;;;;1.90;1.50;;;;;;;;;;4962963;28;20045;-78
2021/09/21 11:33:54;;;;;;;5.88;2.25;;;;;;;;;;4962931;28;20039;-77
2021/09/21 11:36:19;;;;;;;2.50;1.63;;;;;;;;;;4962303;28;20489;-78
2021/09/21 11:38:47;;;;;;;3.03;1.92;;;;;;;;;;4951741;29;20035;-78
2021/09/21 11:41:14;;;;;;;4.57;1.83;;;;;;;;;;4942851;29;20071;-78
2021/09/21 11:43:40;;;;;;;3.38;1.85;;;;;;;;;;4938967;29;20067;-77
2021/09/21 11:46:06;;;;;;;2.88;1.73;;;;;;;;;;4938019;29;20076;-77
2021/09/21 11:48:31;;;;;;;1.65;1.20;;;;;;;;;;4957306;28;20032;-76
2021/09/21 11:50:57;;;;;;;4.03;1.40;;;;;;;;;;4956107;28;20109;-77
2021/09/21 11:53:29;;;;;;;9.60;1.70;;;;;;;;;;4957154;28;20070;-77
2021/09/21 11:55:59;;;;;;;1.77;1.42;;;;;;;;;;4957470;28;20043;-78
2021/09/21 11:58:30;;;;;;;3.33;1.42;;;;;;;;;;4956273;28;20031;-77
2021/09/21 12:00:58;;;;;;;1.85;1.30;;;;;;;;;;4954309;28;20046;-77
2021/09/21 12:03:24;;;;;;;2.08;1.35;;;;;;;;;;4946219;29;20174;-77
2021/09/21 12:05:54;;;;;;;3.78;1.60;;;;;;;;;;4945812;29;20117;-77
2021/09/21 12:08:29;;;;;;;4.57;1.55;;;;;;;;;;4945278;28;20454;-77
2021/09/21 12:11:03;;;;;;;1.63;1.40;;;;;;;;;;4945069;29;20034;-77
2021/09/21 12:13:29;;;;;;;3.38;1.48;;;;;;;;;;4946339;28;20039;-77
2021/09/21 12:15:57;;;;;;;2.88;1.50;;;;;;;;;;4948908;29;20098;-77
2021/09/21 12:18:24;;;;;;;2.08;1.10;;;;;;;;;;4942326;28;20501;-77
2021/09/21 12:21:01;;;;;;;1.65;1.13;;;;;;;;;;4936385;29;20074;-77
2021/09/21 12:23:29;;;;;;;3.05;1.42;;;;;;;;;;4936562;29;20043;-77
2021/09/21 12:25:56;;;;;;;2.38;1.40;;;;;;;;;;4937908;29;20095;-77
2021/09/21 12:28:25;;;;;;;1.60;1.23;;;;;;;;;;4936320;29;20043;-77
2021/09/21 12:30:51;;;;;;;2.72;1.40;;;;;;;;;;4938079;29;20062;-77
2021/09/21 12:33:17;;;;;;;1.92;1.10;;;;;;;;;;4951246;28;20478;-77
2021/09/21 12:35:44;;;;;;;1.65;1.30;;;;;;;;;;4956803;28;20089;-77
2021/09/21 12:38:22;;;;;;;3.22;1.48;;;;;;;;;;4955152;28;20031;-76
2021/09/21 12:40:52;;;;;;;4.95;2.22;;;;;;;;;;4955449;28;20043;-77
2021/09/21 12:43:20;;;;;;;2.67;1.45;;;;;;;;;;4955373;28;20031;-77
2021/09/21 12:45:48;;;;;;;2.10;1.27;;;;;;;;;;4954831;28;20035;-77
2021/09/21 12:48:14;;;;;;;2.60;1.25;;;;;;;;;;4955570;29;20441;-77
2021/09/21 12:50:41;;;;;;;2.50;1.60;;;;;;;;;;4955651;28;20117;-77
2021/09/21 12:53:15;;;;;;;3.58;1.58;;;;;;;;;;4954548;29;20469;-77
2021/09/21 12:55:42;;;;;;;2.35;1.63;;;;;;;;;;4956477;28;20042;-77
2021/09/21 12:58:08;;;;;;;3.83;1.70;;;;;;;;;;4939854;28;20039;-77
2021/09/21 13:00:37;;;;;;;3.45;1.25;;;;;;;;;;4956807;28;20039;-77
2021/09/21 13:03:04;;;;;;;1.73;1.40;;;;;;;;;;4955112;28;20047;-77
2021/09/21 13:05:29;;;;;;;3.42;1.20;;;;;;;;;;4956546;28;20031;-77
2021/09/21 13:07:55;;;;;;;1.85;1.30;;;;;;;;;;4956380;28;20122;-77
2021/09/21 13:10:20;;;;;;;4.63;1.48;;;;;;;;;;4973823;28;20027;-77
2021/09/21 13:12:57;;;;;;;2.60;1.55;;;;;;;;;;4974821;28;20049;-77
2021/09/21 13:15:24;;;;;;;3.38;1.38;;;;;;;;;;4975553;28;20035;-77
2021/09/21 13:17:51;;;;;;;0.98;0.90;;;;;;;;;;4974343;28;20097;-77
2021/09/21 13:20:16;;;;;;;1.73;1.10;;;;;;;;;;4975173;28;20125;-77
2021/09/21 13:22:42;;;;;;;2.13;1.20;;;;;;;;;;4975426;28;20082;-79
2021/09/21 13:25:08;;;;;;;2.58;1.40;;;;;;;;;;4973908;28;20098;-78
2021/09/21 13:27:33;;;;;;;2.85;1.20;;;;;;;;;;4974158;28;20034;-77
2021/09/21 13:29:59;;;;;;;1.92;1.20;;;;;;;;;;4975492;28;20046;-78
2021/09/21 13:32:24;;;;;;;3.50;1.45;;;;;;;;;;4973842;28;20051;-78
2021/09/21 13:34:49;;;;;;;3.10;1.33;;;;;;;;;;4976346;28;20038;-77
2021/09/21 13:37:15;;;;;;;2.60;1.90;;;;;;;;;;4968619;28;20552;-77
2021/09/21 13:39:40;;;;;;;1.55;1.20;;;;;;;;;;4954774;28;20564;-77
2021/09/21 13:42:06;;;;;;;1.10;1.00;;;;;;;;;;4955875;29;20501;-77
2021/09/21 13:44:31;;;;;;;1.30;1.10;;;;;;;;;;4956170;29;20049;-77
2021/09/21 13:46:57;;;;;;;1.45;1.02;;;;;;;;;;4955791;28;20126;-76
2021/09/21 13:49:22;;;;;;;30.17;8.38;;;;;;;;;;4953800;28;20412;-76
2021/09/21 13:51:47;;;;;;;7.00;1.80;;;;;;;;;;4954175;29;20043;-76
2021/09/21 13:54:13;;;;;;;4.95;1.58;;;;;;;;;;4954324;28;20041;-76
2021/09/21 13:56:38;;;;;;;3.33;1.70;;;;;;;;;;4955140;28;20070;-76
2021/09/21 13:59:04;;;;;;;7.72;1.58;;;;;;;;;;4955919;28;20432;-76
2021/09/21 14:01:29;;;;;;;13.88;1.88;;;;;;;;;;4959086;28;20039;-76
2021/09/21 14:03:55;;;;;;;5.32;1.80;;;;;;;;;;4959059;29;20030;-77
2021/09/21 14:06:20;;;;;;;12.52;1.70;;;;;;;;;;4952092;28;20036;-77
2021/09/21 14:08:46;;;;;;;7.55;2.10;;;;;;;;;;4940006;29;20062;-76
2021/09/21 14:11:12;;;;;;;15.18;2.30;;;;;;;;;;4939966;29;20455;-76
2021/09/21 14:13:37;;;;;;;12.50;2.63;;;;;;;;;;4922788;29;20043;-77
2021/09/21 14:16:03;;;;;;;2.00;1.45;;;;;;;;;;4957293;28;20031;-76
2021/09/21 14:18:29;;;;;;;1.75;1.38;;;;;;;;;;4958238;28;20047;-76
2021/09/21 14:20:55;;;;;;;9.60;1.75;;;;;;;;;;4958978;28;20035;-77
2021/09/21 14:23:21;;;;;;;2.15;1.25;;;;;;;;;;4958767;29;20474;-76
2021/09/21 14:25:46;;;;;;;3.22;1.30;;;;;;;;;;4957077;29;20050;-76
2021/09/21 14:28:12;;;;;;;2.22;1.60;;;;;;;;;;4958697;29;20049;-76
2021/09/21 14:30:38;;;;;;;8.50;2.40;;;;;;;;;;4957060;28;20062;-77
2021/09/21 14:33:03;;;;;;;2.78;1.75;;;;;;;;;;4958207;28;20047;-76
2021/09/21 14:35:29;;;;;;;1.73;1.40;;;;;;;;;;4958081;28;20050;-76
2021/09/21 14:37:55;;;;;;;3.53;1.60;;;;;;;;;;4957053;29;20466;-76
2021/09/21 14:40:23;;;;;;;3.42;1.42;;;;;;;;;;4957490;28;20054;-76
2021/09/21 14:42:49;;;;;;;3.05;1.58;;;;;;;;;;4958947;28;20498;-78
2021/09/21 14:45:16;;;;;;;2.58;1.63;;;;;;;;;;4961317;28;20039;-78
2021/09/21 14:47:41;;;;;;;3.25;1.30;;;;;;;;;;4957427;28;20446;-77